sensor_id;sensor_type;location;lat;lon;timestamp;P1;durP1;ratioP1;P2;durP2;ratioP2
17059;SDS011;8646;49.716;9.266;2023-01-19T00:01:10;212.70;;;13.80;;
17059;SDS011;8646;49.716;9.266;2023-01-19T00:04:13;338.73;;;15.93;;
17059;SDS011;8646;49.716;9.266;2023-01-19T00:07:21;281.20;;;14.27;;
17059;SDS011;8646;49.716;9.266;2023-01-19T00:10:23;181.77;;;13.03;;
17059;SDS011;8646;49.716;9.266;2023-01-19T00:13:28;322.50;;;14.23;;
17059;SDS011;8646;49.716;9.266;2023-01-19T00:16:31;81.07;;;12.60;;
17059;SDS011;8646;49.716;9.266;2023-01-19T00:19:34;105.10;;;10.93;;
17059;SDS011;8646;49.716;9.266;2023-01-19T00:22:40;116.67;;;11.77;;
17059;SDS011;8646;49.716;9.266;2023-01-19T00:25:42;142.57;;;13.40;;
17059;SDS011;8646;49.716;9.266;2023-01-19T00:28:45;173.43;;;15.27;;
17059;SDS011;8646;49.716;9.266;2023-01-19T00:31:52;133.67;;;15.27;;
17059;SDS011;8646;49.716;9.266;2023-01-19T00:34:58;141.27;;;15.37;;
17059;SDS011;8646;49.716;9.266;2023-01-19T00:38:04;172.83;;;12.90;;
17059;SDS011;8646;49.716;9.266;2023-01-19T00:41:09;85.27;;;11.37;;
17059;SDS011;8646;49.716;9.266;2023-01-19T00:44:14;114.23;;;11.33;;
17059;SDS011;8646;49.716;9.266;2023-01-19T00:47:20;131.93;;;11.70;;
17059;SDS011;8646;49.716;9.266;2023-01-19T00:50:23;137.33;;;10.30;;
17059;SDS011;8646;49.716;9.266;2023-01-19T00:53:40;142.87;;;9.53;;
17059;SDS011;8646;49.716;9.266;2023-01-19T00:56:42;162.33;;;11.13;;
17059;SDS011;8646;49.716;9.266;2023-01-19T00:59:51;66.37;;;8.43;;
17059;SDS011;8646;49.716;9.266;2023-01-19T01:02:54;65.00;;;9.43;;
17059;SDS011;8646;49.716;9.266;2023-01-19T01:06:05;77.67;;;9.23;;
17059;SDS011;8646;49.716;9.266;2023-01-19T01:09:15;69.73;;;10.17;;
17059;SDS011;8646;49.716;9.266;2023-01-19T01:12:18;44.33;;;8.20;;
17059;SDS011;8646;49.716;9.266;2023-01-19T01:15:21;45.03;;;8.30;;
17059;SDS011;8646;49.716;9.266;2023-01-19T01:18:27;135.67;;;10.43;;
17059;SDS011;8646;49.716;9.266;2023-01-19T01:21:30;86.83;;;9.27;;
17059;SDS011;8646;49.716;9.266;2023-01-19T01:24:39;159.37;;;10.63;;
17059;SDS011;8646;49.716;9.266;2023-01-19T01:27:42;88.23;;;10.03;;
17059;SDS011;8646;49.716;9.266;2023-01-19T01:30:46;86.87;;;9.70;;
17059;SDS011;8646;49.716;9.266;2023-01-19T01:33:56;83.57;;;8.17;;
17059;SDS011;8646;49.716;9.266;2023-01-19T01:36:58;86.67;;;9.23;;
17059;SDS011;8646;49.716;9.266;2023-01-19T01:40:08;132.87;;;12.03;;
17059;SDS011;8646;49.716;9.266;2023-01-19T01:43:13;136.93;;;10.40;;
17059;SDS011;8646;49.716;9.266;2023-01-19T01:46:23;76.50;;;11.63;;
17059;SDS011;8646;49.716;9.266;2023-01-19T01:49:26;152.10;;;11.50;;
17059;SDS011;8646;49.716;9.266;2023-01-19T01:52:39;124.27;;;11.93;;
17059;SDS011;8646;49.716;9.266;2023-01-19T01:56:10;132.23;;;11.70;;
17059;SDS011;8646;49.716;9.266;2023-01-19T01:59:18;175.67;;;12.63;;
17059;SDS011;8646;49.716;9.266;2023-01-19T02:02:27;94.97;;;13.83;;
17059;SDS011;8646;49.716;9.266;2023-01-19T02:05:58;114.57;;;11.97;;
17059;SDS011;8646;49.716;9.266;2023-01-19T02:09:07;111.47;;;12.93;;
17059;SDS011;8646;49.716;9.266;2023-01-19T02:12:32;54.07;;;9.97;;
17059;SDS011;8646;49.716;9.266;2023-01-19T02:15:57;144.33;;;11.47;;
17059;SDS011;8646;49.716;9.266;2023-01-19T02:19:04;81.33;;;8.80;;
17059;SDS011;8646;49.716;9.266;2023-01-19T02:22:10;89.77;;;8.93;;
17059;SDS011;8646;49.716;9.266;2023-01-19T02:25:21;91.13;;;10.07;;
17059;SDS011;8646;49.716;9.266;2023-01-19T02:28:25;108.87;;;9.97;;
17059;SDS011;8646;49.716;9.266;2023-01-19T02:31:32;60.17;;;8.03;;
17059;SDS011;8646;49.716;9.266;2023-01-19T02:34:43;34.27;;;6.13;;
17059;SDS011;8646;49.716;9.266;2023-01-19T02:37:46;41.07;;;8.97;;
17059;SDS011;8646;49.716;9.266;2023-01-19T02:40:53;173.53;;;11.37;;
17059;SDS011;8646;49.716;9.266;2023-01-19T02:43:58;97.20;;;9.50;;
17059;SDS011;8646;49.716;9.266;2023-01-19T02:47:02;65.37;;;6.90;;
17059;SDS011;8646;49.716;9.266;2023-01-19T02:53:45;116.53;;;10.27;;
17059;SDS011;8646;49.716;9.266;2023-01-19T03:00:41;132.30;;;10.93;;
17059;SDS011;8646;49.716;9.266;2023-01-19T03:03:53;108.23;;;11.43;;
17059;SDS011;8646;49.716;9.266;2023-01-19T03:07:08;59.87;;;12.00;;
17059;SDS011;8646;49.716;9.266;2023-01-19T03:10:14;32.67;;;11.83;;
17059;SDS011;8646;49.716;9.266;2023-01-19T03:13:24;33.03;;;11.60;;
17059;SDS011;8646;49.716;9.266;2023-01-19T03:16:35;25.93;;;10.27;;
17059;SDS011;8646;49.716;9.266;2023-01-19T03:19:43;33.10;;;11.57;;
17059;SDS011;8646;49.716;9.266;2023-01-19T03:22:48;34.10;;;12.00;;
17059;SDS011;8646;49.716;9.266;2023-01-19T03:25:55;34.03;;;11.87;;
17059;SDS011;8646;49.716;9.266;2023-01-19T03:29:02;25.47;;;9.63;;
17059;SDS011;8646;49.716;9.266;2023-01-19T03:32:11;23.23;;;10.07;;
17059;SDS011;8646;49.716;9.266;2023-01-19T03:35:18;26.17;;;10.70;;
17059;SDS011;8646;49.716;9.266;2023-01-19T03:38:31;28.20;;;10.87;;
17059;SDS011;8646;49.716;9.266;2023-01-19T03:41:37;29.93;;;10.07;;
17059;SDS011;8646;49.716;9.266;2023-01-19T03:44:44;26.03;;;10.10;;
17059;SDS011;8646;49.716;9.266;2023-01-19T03:47:50;23.10;;;8.23;;
17059;SDS011;8646;49.716;9.266;2023-01-19T03:50:53;28.40;;;9.93;;
17059;SDS011;8646;49.716;9.266;2023-01-19T03:53:56;28.90;;;8.43;;
17059;SDS011;8646;49.716;9.266;2023-01-19T03:57:05;26.23;;;9.10;;
17059;SDS011;8646;49.716;9.266;2023-01-19T04:00:10;30.20;;;9.67;;
17059;SDS011;8646;49.716;9.266;2023-01-19T04:03:14;21.00;;;7.13;;
17059;SDS011;8646;49.716;9.266;2023-01-19T04:06:18;35.33;;;11.33;;
17059;SDS011;8646;49.716;9.266;2023-01-19T04:09:28;26.47;;;8.63;;
17059;SDS011;8646;49.716;9.266;2023-01-19T04:12:31;25.03;;;9.57;;
17059;SDS011;8646;49.716;9.266;2023-01-19T04:15:37;29.30;;;9.20;;
17059;SDS011;8646;49.716;9.266;2023-01-19T04:18:42;18.40;;;6.57;;
17059;SDS011;8646;49.716;9.266;2023-01-19T04:21:47;23.50;;;8.47;;
17059;SDS011;8646;49.716;9.266;2023-01-19T04:24:50;20.70;;;7.53;;
17059;SDS011;8646;49.716;9.266;2023-01-19T04:27:53;24.07;;;9.53;;
17059;SDS011;8646;49.716;9.266;2023-01-19T04:30:59;19.87;;;7.40;;
17059;SDS011;8646;49.716;9.266;2023-01-19T04:34:02;27.83;;;8.47;;
17059;SDS011;8646;49.716;9.266;2023-01-19T04:37:05;26.03;;;9.93;;
17059;SDS011;8646;49.716;9.266;2023-01-19T04:40:09;21.03;;;8.37;;
17059;SDS011;8646;49.716;9.266;2023-01-19T04:43:13;13.00;;;4.87;;
17059;SDS011;8646;49.716;9.266;2023-01-19T04:46:17;23.30;;;9.53;;
17059;SDS011;8646;49.716;9.266;2023-01-19T04:49:19;15.93;;;6.80;;
17059;SDS011;8646;49.716;9.266;2023-01-19T04:52:25;13.43;;;5.50;;
17059;SDS011;8646;49.716;9.266;2023-01-19T04:55:38;20.63;;;6.83;;
17059;SDS011;8646;49.716;9.266;2023-01-19T04:58:40;17.47;;;7.10;;
17059;SDS011;8646;49.716;9.266;2023-01-19T05:01:44;22.43;;;8.87;;
17059;SDS011;8646;49.716;9.266;2023-01-19T05:04:47;28.63;;;8.57;;
17059;SDS011;8646;49.716;9.266;2023-01-19T05:07:50;17.90;;;7.33;;
17059;SDS011;8646;49.716;9.266;2023-01-19T05:10:55;13.40;;;4.17;;
17059;SDS011;8646;49.716;9.266;2023-01-19T05:13:58;18.87;;;5.30;;
17059;SDS011;8646;49.716;9.266;2023-01-19T05:17:02;10.90;;;4.77;;
17059;SDS011;8646;49.716;9.266;2023-01-19T05:20:07;20.77;;;7.63;;
17059;SDS011;8646;49.716;9.266;2023-01-19T05:23:17;15.73;;;5.80;;
17059;SDS011;8646;49.716;9.266;2023-01-19T05:26:20;14.57;;;6.60;;
17059;SDS011;8646;49.716;9.266;2023-01-19T05:29:26;26.03;;;7.97;;
17059;SDS011;8646;49.716;9.266;2023-01-19T05:32:30;25.23;;;8.93;;
17059;SDS011;8646;49.716;9.266;2023-01-19T05:35:32;28.00;;;9.77;;
17059;SDS011;8646;49.716;9.266;2023-01-19T05:38:37;41.40;;;10.27;;
17059;SDS011;8646;49.716;9.266;2023-01-19T05:41:47;22.57;;;8.63;;
17059;SDS011;8646;49.716;9.266;2023-01-19T05:44:50;25.00;;;9.67;;
17059;SDS011;8646;49.716;9.266;2023-01-19T05:47:57;27.30;;;9.90;;
17059;SDS011;8646;49.716;9.266;2023-01-19T05:51:00;24.20;;;9.20;;
17059;SDS011;8646;49.716;9.266;2023-01-19T05:54:11;28.30;;;10.77;;
17059;SDS011;8646;49.716;9.266;2023-01-19T05:57:15;16.93;;;5.23;;
17059;SDS011;8646;49.716;9.266;2023-01-19T06:00:21;31.87;;;9.53;;
17059;SDS011;8646;49.716;9.266;2023-01-19T06:03:27;31.40;;;9.70;;
17059;SDS011;8646;49.716;9.266;2023-01-19T06:06:39;23.77;;;8.63;;
17059;SDS011;8646;49.716;9.266;2023-01-19T06:09:42;23.97;;;9.17;;
17059;SDS011;8646;49.716;9.266;2023-01-19T06:12:47;25.17;;;8.57;;
17059;SDS011;8646;49.716;9.266;2023-01-19T06:15:57;31.57;;;10.03;;
17059;SDS011;8646;49.716;9.266;2023-01-19T06:19:09;20.37;;;7.93;;
17059;SDS011;8646;49.716;9.266;2023-01-19T06:22:11;27.27;;;9.00;;
17059;SDS011;8646;49.716;9.266;2023-01-19T06:25:14;7.83;;;3.60;;
17059;SDS011;8646;49.716;9.266;2023-01-19T06:28:17;20.17;;;7.00;;
17059;SDS011;8646;49.716;9.266;2023-01-19T06:31:19;25.83;;;8.60;;
17059;SDS011;8646;49.716;9.266;2023-01-19T06:34:24;32.73;;;9.10;;
17059;SDS011;8646;49.716;9.266;2023-01-19T06:37:31;23.23;;;6.17;;
17059;SDS011;8646;49.716;9.266;2023-01-19T06:40:36;24.60;;;8.23;;
17059;SDS011;8646;49.716;9.266;2023-01-19T06:43:38;20.93;;;8.40;;
17059;SDS011;8646;49.716;9.266;2023-01-19T06:46:42;23.70;;;9.27;;
17059;SDS011;8646;49.716;9.266;2023-01-19T06:49:51;15.57;;;6.17;;
17059;SDS011;8646;49.716;9.266;2023-01-19T06:52:54;16.53;;;6.87;;
17059;SDS011;8646;49.716;9.266;2023-01-19T06:55:57;19.87;;;7.67;;
17059;SDS011;8646;49.716;9.266;2023-01-19T06:59:01;13.63;;;5.23;;
17059;SDS011;8646;49.716;9.266;2023-01-19T07:02:09;14.33;;;5.80;;
17059;SDS011;8646;49.716;9.266;2023-01-19T07:05:29;18.20;;;6.70;;
17059;SDS011;8646;49.716;9.266;2023-01-19T07:08:35;25.10;;;6.93;;
17059;SDS011;8646;49.716;9.266;2023-01-19T07:11:39;23.93;;;8.73;;
17059;SDS011;8646;49.716;9.266;2023-01-19T07:14:42;17.10;;;6.50;;
17059;SDS011;8646;49.716;9.266;2023-01-19T07:17:45;29.17;;;10.10;;
17059;SDS011;8646;49.716;9.266;2023-01-19T07:20:49;35.20;;;9.30;;
17059;SDS011;8646;49.716;9.266;2023-01-19T07:23:52;29.93;;;10.47;;
17059;SDS011;8646;49.716;9.266;2023-01-19T07:26:55;45.13;;;13.73;;
17059;SDS011;8646;49.716;9.266;2023-01-19T07:29:58;32.33;;;12.73;;
17059;SDS011;8646;49.716;9.266;2023-01-19T07:33:01;42.43;;;15.03;;
17059;SDS011;8646;49.716;9.266;2023-01-19T07:36:08;42.00;;;13.03;;
17059;SDS011;8646;49.716;9.266;2023-01-19T07:39:11;43.40;;;13.83;;
17059;SDS011;8646;49.716;9.266;2023-01-19T07:42:14;40.33;;;14.20;;
17059;SDS011;8646;49.716;9.266;2023-01-19T07:45:17;92.43;;;28.90;;
17059;SDS011;8646;49.716;9.266;2023-01-19T07:48:21;97.00;;;30.30;;
17059;SDS011;8646;49.716;9.266;2023-01-19T07:51:25;80.20;;;29.40;;
17059;SDS011;8646;49.716;9.266;2023-01-19T07:54:28;64.67;;;23.30;;
17059;SDS011;8646;49.716;9.266;2023-01-19T07:57:31;57.83;;;21.80;;
17059;SDS011;8646;49.716;9.266;2023-01-19T08:00:34;49.33;;;16.87;;
17059;SDS011;8646;49.716;9.266;2023-01-19T08:03:38;47.00;;;17.27;;
17059;SDS011;8646;49.716;9.266;2023-01-19T08:06:42;41.30;;;13.67;;
17059;SDS011;8646;49.716;9.266;2023-01-19T08:09:47;38.47;;;14.53;;
17059;SDS011;8646;49.716;9.266;2023-01-19T08:12:50;35.17;;;14.43;;
17059;SDS011;8646;49.716;9.266;2023-01-19T08:15:53;29.13;;;13.07;;
17059;SDS011;8646;49.716;9.266;2023-01-19T08:18:56;29.30;;;13.00;;
17059;SDS011;8646;49.716;9.266;2023-01-19T08:22:02;24.93;;;10.23;;
17059;SDS011;8646;49.716;9.266;2023-01-19T08:25:06;25.30;;;10.40;;
17059;SDS011;8646;49.716;9.266;2023-01-19T08:28:10;44.60;;;18.07;;
17059;SDS011;8646;49.716;9.266;2023-01-19T08:31:14;51.30;;;20.17;;
17059;SDS011;8646;49.716;9.266;2023-01-19T08:34:23;57.23;;;20.70;;
17059;SDS011;8646;49.716;9.266;2023-01-19T08:37:34;50.73;;;20.83;;
17059;SDS011;8646;49.716;9.266;2023-01-19T08:40:38;41.57;;;17.83;;
17059;SDS011;8646;49.716;9.266;2023-01-19T08:43:51;26.40;;;13.03;;
17059;SDS011;8646;49.716;9.266;2023-01-19T08:46:54;24.20;;;12.30;;
17059;SDS011;8646;49.716;9.266;2023-01-19T08:49:56;20.27;;;10.30;;
17059;SDS011;8646;49.716;9.266;2023-01-19T08:53:01;18.73;;;9.00;;
17059;SDS011;8646;49.716;9.266;2023-01-19T08:56:10;24.20;;;10.60;;
17059;SDS011;8646;49.716;9.266;2023-01-19T08:59:22;19.20;;;11.07;;
17059;SDS011;8646;49.716;9.266;2023-01-19T09:02:28;17.60;;;10.00;;
17059;SDS011;8646;49.716;9.266;2023-01-19T09:05:32;15.73;;;9.17;;
17059;SDS011;8646;49.716;9.266;2023-01-19T09:08:38;14.47;;;7.97;;
17059;SDS011;8646;49.716;9.266;2023-01-19T09:11:42;15.90;;;7.63;;
17059;SDS011;8646;49.716;9.266;2023-01-19T09:14:45;39.93;;;17.10;;
17059;SDS011;8646;49.716;9.266;2023-01-19T09:17:50;26.33;;;12.03;;
17059;SDS011;8646;49.716;9.266;2023-01-19T09:20:55;12.50;;;7.03;;
17059;SDS011;8646;49.716;9.266;2023-01-19T09:24:03;16.93;;;7.47;;
17059;SDS011;8646;49.716;9.266;2023-01-19T09:27:06;14.90;;;7.40;;
17059;SDS011;8646;49.716;9.266;2023-01-19T09:30:09;16.90;;;8.20;;
17059;SDS011;8646;49.716;9.266;2023-01-19T09:33:14;15.47;;;8.10;;
17059;SDS011;8646;49.716;9.266;2023-01-19T09:36:18;16.40;;;8.20;;
17059;SDS011;8646;49.716;9.266;2023-01-19T09:39:22;18.17;;;8.80;;
17059;SDS011;8646;49.716;9.266;2023-01-19T09:42:29;13.57;;;7.63;;
17059;SDS011;8646;49.716;9.266;2023-01-19T09:45:38;17.70;;;6.73;;
17059;SDS011;8646;49.716;9.266;2023-01-19T09:48:47;14.93;;;6.77;;
17059;SDS011;8646;49.716;9.266;2023-01-19T09:51:53;14.60;;;7.63;;
17059;SDS011;8646;49.716;9.266;2023-01-19T09:54:57;12.57;;;6.80;;
17059;SDS011;8646;49.716;9.266;2023-01-19T09:58:01;14.97;;;7.17;;
17059;SDS011;8646;49.716;9.266;2023-01-19T10:01:06;15.97;;;7.70;;
17059;SDS011;8646;49.716;9.266;2023-01-19T10:04:31;17.23;;;8.00;;
17059;SDS011;8646;49.716;9.266;2023-01-19T10:07:41;13.50;;;6.73;;
17059;SDS011;8646;49.716;9.266;2023-01-19T10:10:56;10.30;;;5.63;;
17059;SDS011;8646;49.716;9.266;2023-01-19T10:13:59;13.47;;;7.00;;
17059;SDS011;8646;49.716;9.266;2023-01-19T10:17:11;14.40;;;6.13;;
17059;SDS011;8646;49.716;9.266;2023-01-19T10:20:28;11.13;;;5.93;;
17059;SDS011;8646;49.716;9.266;2023-01-19T10:23:35;10.63;;;5.70;;
17059;SDS011;8646;49.716;9.266;2023-01-19T10:26:44;14.40;;;7.47;;
17059;SDS011;8646;49.716;9.266;2023-01-19T10:29:50;25.30;;;11.33;;
17059;SDS011;8646;49.716;9.266;2023-01-19T10:32:59;28.93;;;14.07;;
17059;SDS011;8646;49.716;9.266;2023-01-19T10:36:04;14.77;;;7.63;;
17059;SDS011;8646;49.716;9.266;2023-01-19T10:39:19;19.43;;;9.93;;
17059;SDS011;8646;49.716;9.266;2023-01-19T10:42:25;16.83;;;7.73;;
17059;SDS011;8646;49.716;9.266;2023-01-19T10:45:30;15.00;;;8.40;;
17059;SDS011;8646;49.716;9.266;2023-01-19T10:48:39;13.00;;;7.67;;
17059;SDS011;8646;49.716;9.266;2023-01-19T10:51:45;16.77;;;9.50;;
17059;SDS011;8646;49.716;9.266;2023-01-19T10:54:49;22.97;;;13.63;;
17059;SDS011;8646;49.716;9.266;2023-01-19T10:57:53;13.07;;;6.97;;
17059;SDS011;8646;49.716;9.266;2023-01-19T11:01:01;14.67;;;7.60;;
17059;SDS011;8646;49.716;9.266;2023-01-19T11:04:18;9.40;;;4.60;;
17059;SDS011;8646;49.716;9.266;2023-01-19T11:07:24;12.83;;;7.37;;
17059;SDS011;8646;49.716;9.266;2023-01-19T11:10:30;11.40;;;6.87;;
17059;SDS011;8646;49.716;9.266;2023-01-19T11:13:37;10.17;;;6.07;;
17059;SDS011;8646;49.716;9.266;2023-01-19T11:16:43;8.60;;;5.50;;
17059;SDS011;8646;49.716;9.266;2023-01-19T11:19:57;8.37;;;5.40;;
17059;SDS011;8646;49.716;9.266;2023-01-19T11:23:03;8.83;;;4.57;;
17059;SDS011;8646;49.716;9.266;2023-01-19T11:26:06;9.50;;;5.33;;
17059;SDS011;8646;49.716;9.266;2023-01-19T11:29:16;7.00;;;4.43;;
17059;SDS011;8646;49.716;9.266;2023-01-19T11:32:21;8.67;;;4.03;;
17059;SDS011;8646;49.716;9.266;2023-01-19T11:35:32;8.17;;;4.00;;
17059;SDS011;8646;49.716;9.266;2023-01-19T11:38:40;9.23;;;4.50;;
17059;SDS011;8646;49.716;9.266;2023-01-19T11:41:44;10.77;;;5.37;;
17059;SDS011;8646;49.716;9.266;2023-01-19T11:44:57;7.90;;;4.07;;
17059;SDS011;8646;49.716;9.266;2023-01-19T11:48:05;8.87;;;4.37;;
17059;SDS011;8646;49.716;9.266;2023-01-19T11:51:17;7.37;;;3.70;;
17059;SDS011;8646;49.716;9.266;2023-01-19T11:54:24;8.43;;;3.50;;
17059;SDS011;8646;49.716;9.266;2023-01-19T11:57:36;7.23;;;4.43;;
17059;SDS011;8646;49.716;9.266;2023-01-19T12:00:41;7.73;;;3.60;;
17059;SDS011;8646;49.716;9.266;2023-01-19T12:03:50;7.67;;;3.40;;
17059;SDS011;8646;49.716;9.266;2023-01-19T12:06:58;7.17;;;3.90;;
17059;SDS011;8646;49.716;9.266;2023-01-19T12:10:13;13.60;;;5.77;;
17059;SDS011;8646;49.716;9.266;2023-01-19T12:13:26;9.70;;;5.17;;
17059;SDS011;8646;49.716;9.266;2023-01-19T12:16:32;10.07;;;3.70;;
17059;SDS011;8646;49.716;9.266;2023-01-19T12:19:40;5.40;;;3.40;;
17059;SDS011;8646;49.716;9.266;2023-01-19T12:22:48;6.10;;;3.37;;
17059;SDS011;8646;49.716;9.266;2023-01-19T12:29:37;7.73;;;3.70;;
17059;SDS011;8646;49.716;9.266;2023-01-19T12:32:45;6.40;;;3.97;;
17059;SDS011;8646;49.716;9.266;2023-01-19T12:35:52;7.43;;;3.63;;
17059;SDS011;8646;49.716;9.266;2023-01-19T12:38:56;7.30;;;4.03;;
17059;SDS011;8646;49.716;9.266;2023-01-19T12:42:05;8.37;;;4.03;;
17059;SDS011;8646;49.716;9.266;2023-01-19T12:45:14;8.30;;;4.10;;
17059;SDS011;8646;49.716;9.266;2023-01-19T12:48:24;30.77;;;11.07;;
17059;SDS011;8646;49.716;9.266;2023-01-19T12:51:28;10.83;;;4.77;;
17059;SDS011;8646;49.716;9.266;2023-01-19T12:54:31;21.63;;;8.77;;
17059;SDS011;8646;49.716;9.266;2023-01-19T12:57:36;11.33;;;4.60;;
17059;SDS011;8646;49.716;9.266;2023-01-19T13:00:42;10.47;;;5.20;;
17059;SDS011;8646;49.716;9.266;2023-01-19T13:04:04;14.27;;;6.47;;
17059;SDS011;8646;49.716;9.266;2023-01-19T13:07:09;52.50;;;23.73;;
17059;SDS011;8646;49.716;9.266;2023-01-19T13:17:37;9.57;;;5.00;;
17059;SDS011;8646;49.716;9.266;2023-01-19T13:20:51;14.30;;;6.40;;
17059;SDS011;8646;49.716;9.266;2023-01-19T13:23:58;17.93;;;7.70;;
17059;SDS011;8646;49.716;9.266;2023-01-19T13:27:03;13.83;;;7.83;;
17059;SDS011;8646;49.716;9.266;2023-01-19T13:30:09;11.33;;;4.83;;
17059;SDS011;8646;49.716;9.266;2023-01-19T13:33:14;35.37;;;16.17;;
17059;SDS011;8646;49.716;9.266;2023-01-19T13:36:24;36.83;;;16.73;;
17059;SDS011;8646;49.716;9.266;2023-01-19T13:39:32;63.53;;;28.80;;
17059;SDS011;8646;49.716;9.266;2023-01-19T13:42:38;38.20;;;18.50;;
17059;SDS011;8646;49.716;9.266;2023-01-19T13:45:45;21.07;;;10.60;;
17059;SDS011;8646;49.716;9.266;2023-01-19T13:48:54;14.93;;;8.30;;
17059;SDS011;8646;49.716;9.266;2023-01-19T13:52:04;11.63;;;4.90;;
17059;SDS011;8646;49.716;9.266;2023-01-19T13:55:14;16.57;;;9.73;;
17059;SDS011;8646;49.716;9.266;2023-01-19T13:58:19;14.03;;;6.70;;
17059;SDS011;8646;49.716;9.266;2023-01-19T14:01:23;12.57;;;6.40;;
17059;SDS011;8646;49.716;9.266;2023-01-19T14:04:33;15.73;;;5.50;;
17059;SDS011;8646;49.716;9.266;2023-01-19T14:07:37;11.97;;;6.70;;
17059;SDS011;8646;49.716;9.266;2023-01-19T14:10:41;10.57;;;6.47;;
17059;SDS011;8646;49.716;9.266;2023-01-19T14:13:46;10.73;;;4.47;;
17059;SDS011;8646;49.716;9.266;2023-01-19T14:16:48;7.87;;;4.50;;
17059;SDS011;8646;49.716;9.266;2023-01-19T14:19:52;10.47;;;5.87;;
17059;SDS011;8646;49.716;9.266;2023-01-19T14:22:58;8.43;;;4.87;;
17059;SDS011;8646;49.716;9.266;2023-01-19T14:26:02;9.23;;;4.70;;
17059;SDS011;8646;49.716;9.266;2023-01-19T14:29:15;8.63;;;4.43;;
17059;SDS011;8646;49.716;9.266;2023-01-19T14:32:26;23.27;;;9.40;;
17059;SDS011;8646;49.716;9.266;2023-01-19T14:35:30;24.40;;;10.20;;
17059;SDS011;8646;49.716;9.266;2023-01-19T14:38:36;16.17;;;6.83;;
17059;SDS011;8646;49.716;9.266;2023-01-19T14:41:46;14.20;;;8.13;;
17059;SDS011;8646;49.716;9.266;2023-01-19T14:44:52;24.03;;;15.33;;
17059;SDS011;8646;49.716;9.266;2023-01-19T14:47:58;10.97;;;6.00;;
17059;SDS011;8646;49.716;9.266;2023-01-19T14:51:03;15.27;;;8.67;;
17059;SDS011;8646;49.716;9.266;2023-01-19T14:54:11;10.33;;;5.17;;
17059;SDS011;8646;49.716;9.266;2023-01-19T14:57:22;9.90;;;4.90;;
17059;SDS011;8646;49.716;9.266;2023-01-19T15:00:25;10.83;;;5.30;;
17059;SDS011;8646;49.716;9.266;2023-01-19T15:03:28;14.97;;;7.20;;
17059;SDS011;8646;49.716;9.266;2023-01-19T15:06:45;10.03;;;5.00;;
17059;SDS011;8646;49.716;9.266;2023-01-19T15:09:50;9.17;;;4.43;;
17059;SDS011;8646;49.716;9.266;2023-01-19T15:12:53;9.17;;;5.30;;
17059;SDS011;8646;49.716;9.266;2023-01-19T15:15:56;12.80;;;5.40;;
17059;SDS011;8646;49.716;9.266;2023-01-19T15:18:59;10.77;;;4.93;;
17059;SDS011;8646;49.716;9.266;2023-01-19T15:22:07;10.60;;;4.80;;
17059;SDS011;8646;49.716;9.266;2023-01-19T15:25:14;11.03;;;5.20;;
17059;SDS011;8646;49.716;9.266;2023-01-19T15:28:18;10.60;;;4.97;;
17059;SDS011;8646;49.716;9.266;2023-01-19T15:31:22;9.07;;;4.87;;
17059;SDS011;8646;49.716;9.266;2023-01-19T15:34:29;8.50;;;4.80;;
17059;SDS011;8646;49.716;9.266;2023-01-19T15:37:32;10.53;;;4.80;;
17059;SDS011;8646;49.716;9.266;2023-01-19T15:40:37;10.07;;;5.03;;
17059;SDS011;8646;49.716;9.266;2023-01-19T15:43:40;10.00;;;5.37;;
17059;SDS011;8646;49.716;9.266;2023-01-19T15:46:43;12.00;;;5.63;;
17059;SDS011;8646;49.716;9.266;2023-01-19T15:49:46;10.17;;;5.40;;
17059;SDS011;8646;49.716;9.266;2023-01-19T15:52:48;12.07;;;5.57;;
17059;SDS011;8646;49.716;9.266;2023-01-19T15:55:53;11.60;;;5.30;;
17059;SDS011;8646;49.716;9.266;2023-01-19T15:58:57;14.80;;;6.30;;
17059;SDS011;8646;49.716;9.266;2023-01-19T16:02:00;11.33;;;6.10;;
17059;SDS011;8646;49.716;9.266;2023-01-19T16:05:07;13.80;;;7.10;;
17059;SDS011;8646;49.716;9.266;2023-01-19T16:08:18;13.27;;;7.20;;
17059;SDS011;8646;49.716;9.266;2023-01-19T16:11:24;24.47;;;8.83;;
17059;SDS011;8646;49.716;9.266;2023-01-19T16:14:27;20.27;;;9.87;;
17059;SDS011;8646;49.716;9.266;2023-01-19T16:17:30;17.97;;;8.77;;
17059;SDS011;8646;49.716;9.266;2023-01-19T16:20:35;14.50;;;7.83;;
17059;SDS011;8646;49.716;9.266;2023-01-19T16:23:37;20.60;;;9.50;;
17059;SDS011;8646;49.716;9.266;2023-01-19T16:26:41;15.87;;;8.97;;
17059;SDS011;8646;49.716;9.266;2023-01-19T16:29:44;36.60;;;13.33;;
17059;SDS011;8646;49.716;9.266;2023-01-19T16:32:49;33.63;;;11.97;;
17059;SDS011;8646;49.716;9.266;2023-01-19T16:35:51;28.20;;;13.07;;
17059;SDS011;8646;49.716;9.266;2023-01-19T16:38:56;30.53;;;12.50;;
17059;SDS011;8646;49.716;9.266;2023-01-19T16:42:03;32.10;;;13.73;;
17059;SDS011;8646;49.716;9.266;2023-01-19T16:45:06;40.33;;;14.23;;
17059;SDS011;8646;49.716;9.266;2023-01-19T16:48:09;23.80;;;12.70;;
17059;SDS011;8646;49.716;9.266;2023-01-19T16:51:12;22.53;;;11.63;;
17059;SDS011;8646;49.716;9.266;2023-01-19T16:54:17;18.83;;;10.10;;
17059;SDS011;8646;49.716;9.266;2023-01-19T16:57:22;24.17;;;9.73;;
17059;SDS011;8646;49.716;9.266;2023-01-19T17:00:25;18.73;;;10.13;;
17059;SDS011;8646;49.716;9.266;2023-01-19T17:03:27;18.20;;;8.60;;
17059;SDS011;8646;49.716;9.266;2023-01-19T17:06:32;17.03;;;7.57;;
17059;SDS011;8646;49.716;9.266;2023-01-19T17:09:35;12.50;;;6.37;;
17059;SDS011;8646;49.716;9.266;2023-01-19T17:12:43;28.73;;;13.87;;
17059;SDS011;8646;49.716;9.266;2023-01-19T17:15:46;18.83;;;9.27;;
17059;SDS011;8646;49.716;9.266;2023-01-19T17:18:49;14.33;;;7.50;;
17059;SDS011;8646;49.716;9.266;2023-01-19T17:21:52;14.37;;;7.57;;
17059;SDS011;8646;49.716;9.266;2023-01-19T17:24:54;13.17;;;7.70;;
17059;SDS011;8646;49.716;9.266;2023-01-19T17:27:59;21.47;;;10.20;;
17059;SDS011;8646;49.716;9.266;2023-01-19T17:31:02;19.27;;;10.67;;
17059;SDS011;8646;49.716;9.266;2023-01-19T17:34:06;24.27;;;12.13;;
17059;SDS011;8646;49.716;9.266;2023-01-19T17:37:10;24.40;;;12.73;;
17059;SDS011;8646;49.716;9.266;2023-01-19T17:40:12;31.63;;;15.33;;
17059;SDS011;8646;49.716;9.266;2023-01-19T17:43:16;36.17;;;17.27;;
17059;SDS011;8646;49.716;9.266;2023-01-19T17:46:20;32.23;;;16.13;;
17059;SDS011;8646;49.716;9.266;2023-01-19T17:49:24;31.03;;;15.60;;
17059;SDS011;8646;49.716;9.266;2023-01-19T17:52:26;37.03;;;16.00;;
17059;SDS011;8646;49.716;9.266;2023-01-19T17:55:31;31.97;;;16.57;;
17059;SDS011;8646;49.716;9.266;2023-01-19T17:58:35;36.10;;;19.27;;
17059;SDS011;8646;49.716;9.266;2023-01-19T18:01:38;42.17;;;21.43;;
17059;SDS011;8646;49.716;9.266;2023-01-19T18:04:43;32.90;;;15.90;;
17059;SDS011;8646;49.716;9.266;2023-01-19T18:07:46;32.53;;;16.17;;
17059;SDS011;8646;49.716;9.266;2023-01-19T18:10:51;37.10;;;17.23;;
17059;SDS011;8646;49.716;9.266;2023-01-19T18:13:57;32.27;;;15.23;;
17059;SDS011;8646;49.716;9.266;2023-01-19T18:17:01;33.60;;;16.77;;
17059;SDS011;8646;49.716;9.266;2023-01-19T18:20:04;39.50;;;16.83;;
17059;SDS011;8646;49.716;9.266;2023-01-19T18:23:07;35.20;;;15.80;;
17059;SDS011;8646;49.716;9.266;2023-01-19T18:26:11;32.03;;;16.03;;
17059;SDS011;8646;49.716;9.266;2023-01-19T18:29:17;27.77;;;14.73;;
17059;SDS011;8646;49.716;9.266;2023-01-19T18:32:26;37.70;;;17.50;;
17059;SDS011;8646;49.716;9.266;2023-01-19T18:35:29;15.43;;;8.70;;
17059;SDS011;8646;49.716;9.266;2023-01-19T18:38:32;21.00;;;9.30;;
17059;SDS011;8646;49.716;9.266;2023-01-19T18:41:35;17.20;;;8.63;;
17059;SDS011;8646;49.716;9.266;2023-01-19T18:44:43;16.57;;;9.23;;
17059;SDS011;8646;49.716;9.266;2023-01-19T18:47:46;28.77;;;12.40;;
17059;SDS011;8646;49.716;9.266;2023-01-19T18:50:48;22.90;;;11.93;;
17059;SDS011;8646;49.716;9.266;2023-01-19T18:53:51;23.33;;;11.03;;